Latest Coastal Weather Observations for Ballina

IDN60701

Issued at 9:21 am EDT Monday 5 December 2016 (issued every 10 minutes, with the page automatically refreshed every 10 minutes)

About coastal observations | Map of coastal stations | Coastal observations for NSW | Marine services | Other Formats
Station Details ID: 058198 Name: BALLINA AIRPORT AWS Lat: -28.84 Lon: 153.56 Height: 1.3 m
Data from the previous 72 hours. | See also: Recent months at Ballina
Date/Time
EDT
Temp
°C
Wind Pressure Rain since
9am
mm
Weather Cloud Vis
km
Sea
Height
m
Swell
Dir  Spd
kts
Gust
kts
hPa Trend Height
m
Period
s
Dir
05/09:00am 26.7 NNE 12 19 1014.1 - 0.0 - - 10 - - - -
05/08:30am 25.9 N 13 18 1014.5 - 0.0 - - 10 - - - -
05/08:00am 24.9 N 13 18 1014.5 - 0.0 - - 10 - - - -
05/07:30am 24.3 N 11 15 1014.7 - 0.0 - - 10 - - - -
05/07:00am 23.3 N 10 15 1014.5 - 0.0 - - 10 - - - -
05/06:30am 22.6 N 8 12 1014.6 - 0.0 - - 10 - - - -
05/06:00am 22.3 N 7 10 1014.2 - 0.0 - Mostly clear 10 - - - -
05/05:30am 22.5 N 7 11 1014.2 - 0.0 - - 10 - - - -
05/05:00am 22.7 N 9 14 1013.8 - 0.0 - - 10 - - - -
05/04:30am 22.8 N 10 13 1013.5 - 0.0 - - 10 - - - -
05/04:00am 22.8 NNE 9 13 1013.3 - 0.0 - - 10 - - - -
05/03:30am 22.9 N 9 12 1013.4 - 0.0 - - 10 - - - -
05/03:00am 22.9 N 10 15 1013.7 - 0.0 - - 10 - - - -
05/02:30am 22.8 N 9 13 1013.9 - 0.0 - - 10 - - - -
05/02:00am 22.8 N 9 13 1014.0 - 0.0 - - 10 - - - -
05/01:30am 23.1 N 11 16 1014.1 - 0.0 - - 10 - - - -
05/01:00am 22.9 NNE 9 13 1014.5 - 0.0 - - 10 - - - -
05/12:30am 22.8 N 9 11 1014.7 - 0.0 - - 10 - - - -
05/12:00am 23.0 N 10 14 1014.9 - 0.0 - - 10 - - - -
 
Date/Time
EDT
Temp
°C
Wind Pressure Rain since
9am
mm
Weather Cloud Vis
km
Sea
Height
m
Swell
Dir  Spd
kts
Gust
kts
hPa Trend Height
m
Period
s
Dir
04/11:30pm 23.0 N 9 14 1014.9 - 0.0 - - 10 - - - -
04/11:00pm 23.0 N 9 12 1014.8 - 0.0 - - 10 - - - -
04/10:30pm 23.1 NNE 9 13 1014.6 - 0.0 - - 10 - - - -
04/10:00pm 23.2 NNE 9 13 1014.4 - 0.0 - - 10 - - - -
04/09:30pm 23.5 NNE 10 13 1014.0 - 0.0 - - 10 - - - -
04/09:00pm 23.7 NNE 10 14 1013.7 - 0.0 - - 10 - - - -
04/08:30pm 23.9 N 11 15 1013.6 - 0.0 - - 10 - - - -
04/08:00pm 24.1 N 11 16 1013.4 - 0.0 - - 10 - - - -
04/07:30pm 24.4 NNE 11 16 1013.3 - 0.0 - - 10 - - - -
04/07:00pm 24.9 N 13 19 1013.0 - 0.0 - - 10 - - - -
04/06:30pm 25.6 NNE 16 22 1012.7 - 0.0 - - 10 - - - -
04/06:00pm 26.5 NNE 14 23 1012.5 - 0.0 - - 10 - - - -
04/05:30pm 26.7 NNE 19 26 1012.3 - 0.0 - - 10 - - - -
04/05:00pm 27.5 NNE 18 24 1012.5 - 0.0 - - 10 - - - -
04/04:30pm 27.8 N 18 25 1012.6 - 0.0 - - 10 - - - -
04/04:00pm 27.9 N 17 24 1012.8 - 0.0 - - 10 - - - -
04/03:43pm 28.5 N 15 25 1012.9 - 0.0 - - 10 - - - -
04/03:30pm 28.4 N 17 23 1012.8 - 0.0 - - 10 - - - -
04/03:00pm 29.0 NNE 15 20 1013.1 - 0.0 - - 10 - - - -
04/02:30pm 30.1 NNE 12 18 1013.3 - 0.0 - - 10 - - - -
04/02:00pm 29.6 NE 14 18 1013.7 - 0.0 - - 10 - - - -
04/01:30pm 29.3 NE 15 19 1013.9 - 0.0 - - 10 - - - -
04/01:00pm 29.3 NE 13 17 1014.3 - 0.0 - - 10 - - - -
04/12:30pm 29.0 NE 14 18 1014.8 - 0.0 - - 10 - - - -
04/12:00pm 28.2 NE 14 17 1015.1 - 0.0 - - 10 - - - -
04/11:30am 27.8 ENE 14 17 1015.4 - 0.0 - - 10 - - - -
04/11:00am 28.2 ENE 11 15 1015.6 - 0.0 - - 10 - - - -
04/10:30am 28.1 ENE 9 15 1015.7 - 0.0 - - 10 - - - -
04/10:00am 27.0 ENE 7 12 1015.8 - 0.0 - - 10 - - - -
04/09:30am 26.8 ENE 8 11 1015.8 - 0.0 - - 10 - - - -
04/09:00am 26.6 NE 6 9 1015.8 - 2.2 - - 10 - - - -
04/08:30am 24.2 WSW 1 3 1016.1 - 2.2 - - 10 - - - -
04/08:00am 23.1 NW 2 4 1015.7 - 2.2 - - 10 - - - -
04/07:30am 22.2 NNW 3 6 1015.5 - 2.2 - Partly cloudy 10 - - - -
04/07:25am 22.0 NNW 2 4 1015.5 - 2.2 - Partly cloudy 10 - - - -
04/07:21am 21.9 NNW 1 3 1015.5 - 2.2 - Partly cloudy 10 - - - -
04/07:00am 20.9 CALM 0 0 1015.4 - 2.2 - Cloudy 3 - - - -
04/06:30am 20.5 NW 4 5 1015.2 - 2.2 - Cloudy 0.2 - - - -
04/06:00am 20.6 CALM 0 1 1015.2 - 2.2 - Cloudy 0.2 - - - -
04/05:30am 20.7 W 4 5 1015.1 - 2.2 - Cloudy 0.1 - - - -
04/05:00am 20.8 WSW 4 5 1015.2 - 2.2 - Cloudy 0.1 - - - -
04/04:30am 20.9 SW 4 6 1015.1 - 2.2 - Cloudy 0.2 - - - -
04/04:00am 20.8 WSW 4 5 1015.0 - 2.2 - Cloudy 0.2 - - - -
04/03:30am 20.8 WSW 5 6 1015.1 - 2.2 - Cloudy 0.7 - - - -
04/03:00am 20.8 WSW 5 6 1015.0 - 2.2 - Cloudy 0.5 - - - -
04/02:30am 20.8 SW 4 7 1015.1 - 2.2 - Cloudy 4 - - - -
04/02:17am 20.8 SW 6 9 1015.1 - 2.2 - Cloudy 5 - - - -
04/02:00am 20.8 S 7 10 1015.2 - 2.2 - Cloudy 7 - - - -
04/01:30am 20.7 SSW 7 10 1015.4 - 2.2 - Cloudy 6 - - - -
04/01:15am 20.7 SSW 5 8 1015.3 - 2.2 - Partly cloudy 7 - - - -
04/01:00am 20.7 SSW 5 7 1015.3 - 2.2 - - 8 - - - -
04/12:30am 20.8 WSW 7 11 1015.6 - 2.2 - - 10 - - - -
04/12:00am 21.3 SW 10 13 1015.8 - 2.2 - - 10 - - - -
 
Date/Time
EDT
Temp
°C
Wind Pressure Rain since
9am
mm
Weather Cloud Vis
km
Sea
Height
m
Swell
Dir  Spd
kts
Gust
kts
hPa Trend Height
m
Period
s
Dir
03/11:30pm 22.4 SSW 10 13 1015.5 - 2.2 - - 10 - - - -
03/11:00pm 22.9 NW 9 12 1014.6 - 2.2 - - 10 - - - -
03/10:30pm 23.2 N 9 13 1014.1 - 2.2 - - 10 - - - -
03/10:00pm 22.9 N 9 17 1013.6 - 2.2 - Partly cloudy 10 - - - -
03/09:41pm 22.6 N 14 20 1014.1 - 2.2 - Partly cloudy 10 - - - -
03/09:30pm 22.9 NNW 10 18 1016.1 - 2.0 - - 10 - - - -
03/09:00pm 22.9 NW 10 14 1016.4 - 2.0 - Cloudy 10 - - - -
03/08:30pm 22.3 NNW 11 13 1015.0 - 2.0 - - 10 - - - -
03/08:00pm 22.5 NNW 6 8 1015.7 - 2.0 - - 10 - - - -
03/07:30pm 23.2 W 13 20 1014.9 - 2.0 - Partly cloudy 10 - - - -
03/07:25pm 23.5 NNE 13 21 1013.9 - 2.0 - Partly cloudy 10 - - - -
03/07:05pm 22.4 ENE 18 28 1011.9 - 2.0 - Partly cloudy 10 - - - -
03/07:00pm 22.5 ENE 12 19 1013.6 - 1.8 - Partly cloudy 9 - - - -
03/06:54pm 22.6 ESE 7 11 1015.3 - 1.8 - Partly cloudy 7 - - - -
03/06:30pm 23.6 WSW 14 21 1017.4 - 0.8 - Partly cloudy 7 - - - -
03/06:28pm 23.8 WSW 15 25 1017.6 - 0.8 - Partly cloudy 8 - - - -
03/06:16pm 23.8 WNW 11 22 1017.0 - 0.4 - Partly cloudy 10 - - - -
03/06:12pm 23.5 NNW 8 14 1015.4 - 0.4 - - 10 - - - -
03/06:00pm 23.4 N 10 13 1013.4 - 0.4 Rain Mostly cloudy 10 - - - -
03/05:30pm 24.0 N 15 24 1011.6 - 0.0 - Partly cloudy 10 - - - -
03/05:18pm 24.0 N 15 25 1010.8 - 0.0 - Partly cloudy 10 - - - -
03/05:00pm 24.0 NNE 13 22 1011.2 - 0.0 - Partly cloudy 10 - - - -
03/04:30pm 24.3 NNE 13 21 1011.5 - 0.0 - Partly cloudy 10 - - - -
03/04:00pm 24.5 NNE 14 20 1010.7 - 0.0 - - 10 - - - -
03/03:47pm 24.6 NNE 16 26 1010.2 - 0.0 - - 10 - - - -
03/03:30pm 24.9 NNE 16 24 1010.7 - 0.0 - - 10 - - - -
03/03:00pm 26.2 NNE 16 23 1011.5 - 0.0 - Cloudy 10 - - - -
03/02:30pm 27.8 NE 17 21 1011.3 - 0.0 - - 10 - - - -
03/02:00pm 30.2 NE 17 21 1011.8 - 0.0 - - 10 - - - -
03/01:30pm 30.3 NE 16 21 1012.4 - 0.0 - - 10 - - - -
03/01:00pm 29.8 NE 15 20 1012.7 - 0.0 - - 10 - - - -
03/12:30pm 29.8 NE 15 19 1013.0 - 0.0 - - 10 - - - -
03/12:00pm 30.1 NE 15 19 1013.3 - 0.0 - - 10 - - - -
03/11:30am 29.7 NE 11 17 1013.6 - 0.0 - - 10 - - - -
03/11:00am 30.0 N 7 13 1014.3 - 0.0 - - 10 - - - -
03/10:30am 29.1 N 9 16 1014.5 - 0.0 - Partly cloudy 10 - - - -
03/10:00am 28.4 N 11 15 1014.7 - 0.0 - Partly cloudy 10 - - - -
03/09:30am 27.1 N 10 15 1014.6 - 0.0 - Partly cloudy 10 - - - -
03/09:27am 27.2 N 9 14 1014.6 - 0.0 - Partly cloudy 10 - - - -
03/09:00am 26.4 N 11 16 1014.6 - 0.0 - Mostly cloudy 10 - - - -
03/08:30am 24.8 N 8 13 1015.0 - 0.0 - Cloudy 10 - - - -
03/08:00am 24.5 N 8 12 1014.8 - 0.0 - Cloudy 10 - - - -
03/07:30am 23.9 N 9 12 1014.4 - 0.0 - Partly cloudy 10 - - - -
03/07:00am 23.8 N 10 15 1014.0 - 0.0 - Cloudy 10 - - - -
03/06:30am 23.6 N 8 12 1014.0 - 0.0 - Cloudy 10 - - - -
03/06:00am 23.4 NNE 7 10 1013.4 - 0.0 - Cloudy 9 - - - -
03/05:30am 23.3 NNE 7 10 1013.2 - 0.0 - Cloudy 10 - - - -
03/05:00am 22.9 NNE 8 10 1012.7 - 0.0 - Cloudy 10 - - - -
03/04:35am 22.5 NNE 6 8 1012.4 - 0.0 - Partly cloudy 10 - - - -
03/04:30am 22.4 NNE 7 9 1012.3 - 0.0 - Partly cloudy 10 - - - -
03/04:00am 22.4 NNE 8 10 1012.0 - 0.0 - - 10 - - - -
03/03:30am 22.3 NNE 8 11 1012.0 - 0.0 - - 10 - - - -
03/03:00am 22.4 NNE 7 9 1012.6 - 0.0 - - 10 - - - -
03/02:30am 22.5 NNE 8 11 1012.8 - 0.0 - - 10 - - - -
03/02:00am 22.7 N 7 11 1013.0 - 0.0 - - 10 - - - -
03/01:30am 22.8 NNE 7 11 1013.1 - 0.0 - - 10 - - - -
03/01:00am 23.0 N 7 11 1013.4 - 0.0 - - 10 - - - -
03/12:30am 23.1 N 9 14 1013.3 - 0.0 - - 10 - - - -
03/12:00am 23.2 N 9 12 1012.9 - 0.0 - - 10 - - - -
 
Date/Time
EDT
Temp
°C
Wind Pressure Rain since
9am
mm
Weather Cloud Vis
km
Sea
Height
m
Swell
Dir  Spd
kts
Gust
kts
hPa Trend Height
m
Period
s
Dir
02/11:30pm 23.5 NNE 9 13 1012.9 - 0.0 - - 10 - - - -
02/11:00pm 23.5 NNE 10 17 1012.8 - 0.0 - - 10 - - - -
02/10:30pm 23.3 NNE 9 15 1012.6 - 0.0 - - 10 - - - -
02/10:00pm 23.4 NNE 10 14 1012.1 - 0.0 - - 10 - - - -
02/09:30pm 23.6 NNE 12 17 1011.8 - 0.0 - - 10 - - - -
02/09:00pm 23.8 N 12 18 1011.8 - 0.0 - - 10 - - - -
02/08:30pm 23.8 NNE 12 17 1011.1 - 0.0 - - 10 - - - -
02/08:00pm 23.9 NNE 13 16 1010.9 - 0.0 - - 10 - - - -
02/07:30pm 24.3 N 13 19 1010.4 - 0.0 - - 10 - - - -
02/07:00pm 24.7 N 15 22 1010.1 - 0.0 - - 10 - - - -
02/06:30pm 25.7 NNE 16 21 1009.5 - 0.0 - - 10 - - - -
02/06:00pm 26.7 NNE 15 23 1009.3 - 0.0 - Mostly clear 10 - - - -
02/05:30pm 26.7 NNE 14 24 1008.9 - 0.0 - - 10 - - - -
02/05:00pm 27.1 NNE 13 20 1008.9 - 0.0 - - 10 - - - -
02/04:30pm 27.9 NNE 16 22 1008.8 - 0.0 - - 10 - - - -
02/04:24pm 28.0 N 15 25 1008.8 - 0.0 - - 10 - - - -
02/04:00pm 28.5 NNE 16 24 1008.6 - 0.0 - - 10 - - - -
02/03:30pm 29.3 NNE 15 23 1008.9 - 0.0 - - 10 - - - -
02/03:00pm 29.0 NNE 16 20 1009.2 - 0.0 - - 10 - - - -
02/02:30pm 30.1 NNE 12 17 1009.3 - 0.0 - - 10 - - - -
02/02:00pm 29.4 NE 15 20 1009.3 - 0.0 - - 10 - - - -
02/01:30pm 28.8 ENE 14 19 1009.5 - 0.0 - - 10 - - - -
02/01:00pm 29.6 NNE 12 18 1009.6 - 0.0 - - 10 - - - -
02/12:30pm 29.7 NNE 11 16 1010.1 - 0.0 - - 10 - - - -
02/12:00pm 29.7 NNE 13 20 1010.1 - 0.0 - - 10 - - - -
02/11:30am 29.5 NNE 11 15 1010.6 - 0.0 - - 10 - - - -
02/11:00am 28.8 NNE 10 15 1011.0 - 0.0 - - 10 - - - -
02/10:30am 28.7 ENE 13 18 1011.0 - 0.0 - - 10 - - - -
02/10:00am 27.6 NE 11 13 1011.3 - 0.0 - - 10 - - - -
02/09:30am 27.1 N 6 9 1011.4 - 0.0 - - 10 - - - -

Other Formats:

Comma delimited format used in spreadsheet applications
http://www.bom.gov.au/fwo/IDN60701/IDN60701.94596.axf

JavaScript Object Notation format (JSON) in row-major order
http://www.bom.gov.au/fwo/IDN60701/IDN60701.94596.json